sensor_id;sensor_type;location;lat;lon;timestamp;temperature;humidity
12714;DHT22;6421;44.470;11.270;2022-09-27T00:01:59;14.40;99.90
12714;DHT22;6421;44.470;11.270;2022-09-27T00:04:25;14.30;99.90
12714;DHT22;6421;44.470;11.270;2022-09-27T00:11:44;14.40;99.90
12714;DHT22;6421;44.470;11.270;2022-09-27T00:14:14;14.40;99.90
12714;DHT22;6421;44.470;11.270;2022-09-27T00:16:41;14.40;99.90
12714;DHT22;6421;44.470;11.270;2022-09-27T00:19:13;14.40;99.90
12714;DHT22;6421;44.470;11.270;2022-09-27T00:24:06;14.40;99.90
12714;DHT22;6421;44.470;11.270;2022-09-27T00:26:31;14.40;99.90
12714;DHT22;6421;44.470;11.270;2022-09-27T00:28:57;14.40;99.90
12714;DHT22;6421;44.470;11.270;2022-09-27T00:31:25;14.40;99.90
12714;DHT22;6421;44.470;11.270;2022-09-27T00:33:54;14.40;99.90
12714;DHT22;6421;44.470;11.270;2022-09-27T00:36:21;14.50;99.90
12714;DHT22;6421;44.470;11.270;2022-09-27T00:38:47;14.40;99.90
12714;DHT22;6421;44.470;11.270;2022-09-27T00:41:19;14.50;99.90
12714;DHT22;6421;44.470;11.270;2022-09-27T00:43:49;14.50;99.90
12714;DHT22;6421;44.470;11.270;2022-09-27T00:49:18;14.50;99.90
12714;DHT22;6421;44.470;11.270;2022-09-27T00:51:51;14.60;99.90
12714;DHT22;6421;44.470;11.270;2022-09-27T00:54:18;14.50;99.90
12714;DHT22;6421;44.470;11.270;2022-09-27T00:56:45;14.50;99.90
12714;DHT22;6421;44.470;11.270;2022-09-27T00:59:37;14.60;99.90
12714;DHT22;6421;44.470;11.270;2022-09-27T01:02:05;14.60;99.90
12714;DHT22;6421;44.470;11.270;2022-09-27T01:04:33;14.50;99.90
12714;DHT22;6421;44.470;11.270;2022-09-27T01:09:26;14.60;99.90
12714;DHT22;6421;44.470;11.270;2022-09-27T01:18:08;14.50;99.90
12714;DHT22;6421;44.470;11.270;2022-09-27T01:21:24;14.50;99.90
12714;DHT22;6421;44.470;11.270;2022-09-27T01:34:08;14.60;99.90
12714;DHT22;6421;44.470;11.270;2022-09-27T01:36:43;14.50;99.90
12714;DHT22;6421;44.470;11.270;2022-09-27T01:42:25;14.50;99.90
12714;DHT22;6421;44.470;11.270;2022-09-27T01:47:38;14.50;99.90
12714;DHT22;6421;44.470;11.270;2022-09-27T01:50:20;14.50;99.90
12714;DHT22;6421;44.470;11.270;2022-09-27T01:53:09;14.50;99.90
12714;DHT22;6421;44.470;11.270;2022-09-27T01:55:37;14.50;99.90
12714;DHT22;6421;44.470;11.270;2022-09-27T01:58:13;14.50;99.90
12714;DHT22;6421;44.470;11.270;2022-09-27T02:00:41;14.60;99.90
12714;DHT22;6421;44.470;11.270;2022-09-27T02:03:13;14.50;99.90
12714;DHT22;6421;44.470;11.270;2022-09-27T02:05:46;14.60;99.90
12714;DHT22;6421;44.470;11.270;2022-09-27T02:08:48;14.60;99.90
12714;DHT22;6421;44.470;11.270;2022-09-27T02:11:15;14.60;99.90
12714;DHT22;6421;44.470;11.270;2022-09-27T02:16:51;14.50;99.90
12714;DHT22;6421;44.470;11.270;2022-09-27T02:19:32;14.50;99.90
12714;DHT22;6421;44.470;11.270;2022-09-27T02:24:52;14.50;99.90
12714;DHT22;6421;44.470;11.270;2022-09-27T02:27:25;14.50;99.90
12714;DHT22;6421;44.470;11.270;2022-09-27T02:29:59;14.50;99.90
12714;DHT22;6421;44.470;11.270;2022-09-27T02:32:26;14.40;99.90
12714;DHT22;6421;44.470;11.270;2022-09-27T02:34:52;14.40;99.90
12714;DHT22;6421;44.470;11.270;2022-09-27T02:37:20;14.40;99.90
12714;DHT22;6421;44.470;11.270;2022-09-27T02:42:18;14.40;99.90
12714;DHT22;6421;44.470;11.270;2022-09-27T02:44:44;14.30;99.90
12714;DHT22;6421;44.470;11.270;2022-09-27T02:50:28;14.40;99.90
12714;DHT22;6421;44.470;11.270;2022-09-27T02:53:10;14.30;99.90
12714;DHT22;6421;44.470;11.270;2022-09-27T02:56:08;14.30;99.90
12714;DHT22;6421;44.470;11.270;2022-09-27T02:59:27;16.80;99.90
12714;DHT22;6421;44.470;11.270;2022-09-27T03:02:18;14.20;99.90
12714;DHT22;6421;44.470;11.270;2022-09-27T03:05:00;14.20;99.90
12714;DHT22;6421;44.470;11.270;2022-09-27T03:09:53;14.20;99.90
12714;DHT22;6421;44.470;11.270;2022-09-27T03:12:20;14.20;99.90
12714;DHT22;6421;44.470;11.270;2022-09-27T03:14:59;14.20;99.90
12714;DHT22;6421;44.470;11.270;2022-09-27T03:17:25;14.00;99.90
12714;DHT22;6421;44.470;11.270;2022-09-27T03:19:51;14.00;99.90
12714;DHT22;6421;44.470;11.270;2022-09-27T03:22:17;14.00;99.90
12714;DHT22;6421;44.470;11.270;2022-09-27T03:24:42;14.00;99.90
12714;DHT22;6421;44.470;11.270;2022-09-27T03:27:10;16.60;99.90
12714;DHT22;6421;44.470;11.270;2022-09-27T03:29:36;13.90;99.90
12714;DHT22;6421;44.470;11.270;2022-09-27T03:32:02;13.90;99.90
12714;DHT22;6421;44.470;11.270;2022-09-27T03:34:28;13.80;99.90
12714;DHT22;6421;44.470;11.270;2022-09-27T03:36:54;13.80;99.90
12714;DHT22;6421;44.470;11.270;2022-09-27T03:39:19;13.80;99.90
12714;DHT22;6421;44.470;11.270;2022-09-27T03:41:45;13.90;99.90
12714;DHT22;6421;44.470;11.270;2022-09-27T03:44:11;14.00;99.90
12714;DHT22;6421;44.470;11.270;2022-09-27T03:46:37;13.80;99.90
12714;DHT22;6421;44.470;11.270;2022-09-27T03:49:02;13.80;99.90
12714;DHT22;6421;44.470;11.270;2022-09-27T03:51:28;13.70;99.90
12714;DHT22;6421;44.470;11.270;2022-09-27T03:53:54;13.60;99.90
12714;DHT22;6421;44.470;11.270;2022-09-27T03:56:19;13.70;99.90
12714;DHT22;6421;44.470;11.270;2022-09-27T03:58:45;13.70;99.90
12714;DHT22;6421;44.470;11.270;2022-09-27T04:01:10;13.70;99.90
12714;DHT22;6421;44.470;11.270;2022-09-27T04:03:36;13.60;99.90
12714;DHT22;6421;44.470;11.270;2022-09-27T04:06:03;13.50;99.90
12714;DHT22;6421;44.470;11.270;2022-09-27T04:08:28;13.60;99.90
12714;DHT22;6421;44.470;11.270;2022-09-27T04:10:55;13.60;99.90
12714;DHT22;6421;44.470;11.270;2022-09-27T04:13:21;13.50;99.90
12714;DHT22;6421;44.470;11.270;2022-09-27T04:18:13;13.50;99.90
12714;DHT22;6421;44.470;11.270;2022-09-27T04:25:31;13.60;99.90
12714;DHT22;6421;44.470;11.270;2022-09-27T04:27:57;13.30;99.90
12714;DHT22;6421;44.470;11.270;2022-09-27T04:30:24;13.40;99.90
12714;DHT22;6421;44.470;11.270;2022-09-27T04:32:50;13.30;99.90
12714;DHT22;6421;44.470;11.270;2022-09-27T04:35:17;13.20;99.90
12714;DHT22;6421;44.470;11.270;2022-09-27T04:40:28;13.20;99.90
12714;DHT22;6421;44.470;11.270;2022-09-27T04:42:53;13.50;99.90
12714;DHT22;6421;44.470;11.270;2022-09-27T04:45:19;13.20;99.90
12714;DHT22;6421;44.470;11.270;2022-09-27T04:47:46;13.10;99.90
12714;DHT22;6421;44.470;11.270;2022-09-27T04:50:13;13.50;99.90
12714;DHT22;6421;44.470;11.270;2022-09-27T04:52:39;13.20;99.90
12714;DHT22;6421;44.470;11.270;2022-09-27T04:55:06;13.10;99.90
12714;DHT22;6421;44.470;11.270;2022-09-27T04:57:32;13.00;99.90
12714;DHT22;6421;44.470;11.270;2022-09-27T04:59:58;13.00;99.90
12714;DHT22;6421;44.470;11.270;2022-09-27T05:02:27;13.10;99.90
12714;DHT22;6421;44.470;11.270;2022-09-27T05:04:54;13.10;99.90
12714;DHT22;6421;44.470;11.270;2022-09-27T05:07:26;13.20;99.90
12714;DHT22;6421;44.470;11.270;2022-09-27T05:09:52;13.10;99.90
12714;DHT22;6421;44.470;11.270;2022-09-27T05:12:18;13.00;99.90
12714;DHT22;6421;44.470;11.270;2022-09-27T05:14:44;13.10;99.90
12714;DHT22;6421;44.470;11.270;2022-09-27T05:19:37;13.00;99.90
12714;DHT22;6421;44.470;11.270;2022-09-27T05:24:30;13.00;99.90
12714;DHT22;6421;44.470;11.270;2022-09-27T05:26:57;13.00;99.90
12714;DHT22;6421;44.470;11.270;2022-09-27T05:29:22;13.10;99.90
12714;DHT22;6421;44.470;11.270;2022-09-27T05:31:48;13.10;99.90
12714;DHT22;6421;44.470;11.270;2022-09-27T05:34:14;13.10;99.90
12714;DHT22;6421;44.470;11.270;2022-09-27T05:36:40;13.10;99.90
12714;DHT22;6421;44.470;11.270;2022-09-27T05:39:05;13.30;99.90
12714;DHT22;6421;44.470;11.270;2022-09-27T05:43:58;13.50;99.90
12714;DHT22;6421;44.470;11.270;2022-09-27T05:46:24;13.50;99.90
12714;DHT22;6421;44.470;11.270;2022-09-27T05:48:49;13.60;99.90
12714;DHT22;6421;44.470;11.270;2022-09-27T05:51:15;13.80;99.90
12714;DHT22;6421;44.470;11.270;2022-09-27T05:53:41;13.90;99.90
12714;DHT22;6421;44.470;11.270;2022-09-27T05:56:06;14.00;99.90
12714;DHT22;6421;44.470;11.270;2022-09-27T05:58:32;14.10;99.90
12714;DHT22;6421;44.470;11.270;2022-09-27T06:00:59;14.30;99.90
12714;DHT22;6421;44.470;11.270;2022-09-27T06:03:24;14.30;99.90
12714;DHT22;6421;44.470;11.270;2022-09-27T06:05:50;14.50;99.90
12714;DHT22;6421;44.470;11.270;2022-09-27T06:08:16;14.50;99.90
12714;DHT22;6421;44.470;11.270;2022-09-27T06:10:41;14.70;99.90
12714;DHT22;6421;44.470;11.270;2022-09-27T06:13:11;14.90;99.90
12714;DHT22;6421;44.470;11.270;2022-09-27T06:15:38;15.00;99.90
12714;DHT22;6421;44.470;11.270;2022-09-27T06:18:10;15.20;99.90
12714;DHT22;6421;44.470;11.270;2022-09-27T06:20:37;15.20;99.90
12714;DHT22;6421;44.470;11.270;2022-09-27T06:23:11;15.20;99.90
12714;DHT22;6421;44.470;11.270;2022-09-27T06:25:38;15.30;99.90
12714;DHT22;6421;44.470;11.270;2022-09-27T06:28:04;15.40;99.90
12714;DHT22;6421;44.470;11.270;2022-09-27T06:30:31;15.50;99.90
12714;DHT22;6421;44.470;11.270;2022-09-27T06:32:58;15.60;99.90
12714;DHT22;6421;44.470;11.270;2022-09-27T06:35:25;15.80;99.90
12714;DHT22;6421;44.470;11.270;2022-09-27T06:37:51;15.70;99.90
12714;DHT22;6421;44.470;11.270;2022-09-27T06:40:18;15.80;99.90
12714;DHT22;6421;44.470;11.270;2022-09-27T06:42:44;15.80;99.90
12714;DHT22;6421;44.470;11.270;2022-09-27T06:45:11;15.90;99.90
12714;DHT22;6421;44.470;11.270;2022-09-27T06:47:37;16.00;99.90
12714;DHT22;6421;44.470;11.270;2022-09-27T06:50:03;16.10;99.90
12714;DHT22;6421;44.470;11.270;2022-09-27T06:54:56;16.10;99.90
12714;DHT22;6421;44.470;11.270;2022-09-27T06:57:22;16.10;99.90
12714;DHT22;6421;44.470;11.270;2022-09-27T07:00:08;16.20;99.90
12714;DHT22;6421;44.470;11.270;2022-09-27T07:02:55;16.20;99.90
12714;DHT22;6421;44.470;11.270;2022-09-27T07:05:28;16.30;99.90
12714;DHT22;6421;44.470;11.270;2022-09-27T07:07:57;16.40;99.90
12714;DHT22;6421;44.470;11.270;2022-09-27T07:10:25;16.60;99.90
12714;DHT22;6421;44.470;11.270;2022-09-27T07:15:18;16.80;99.90
12714;DHT22;6421;44.470;11.270;2022-09-27T07:17:46;16.90;99.90
12714;DHT22;6421;44.470;11.270;2022-09-27T07:20:12;17.20;99.90
12714;DHT22;6421;44.470;11.270;2022-09-27T07:22:41;17.10;99.90
12714;DHT22;6421;44.470;11.270;2022-09-27T07:27:36;17.60;99.90
12714;DHT22;6421;44.470;11.270;2022-09-27T07:30:03;17.60;99.90
12714;DHT22;6421;44.470;11.270;2022-09-27T07:32:32;17.80;99.90
12714;DHT22;6421;44.470;11.270;2022-09-27T07:35:00;17.80;99.90
12714;DHT22;6421;44.470;11.270;2022-09-27T07:37:25;18.00;99.90
12714;DHT22;6421;44.470;11.270;2022-09-27T07:39:51;18.20;99.90
12714;DHT22;6421;44.470;11.270;2022-09-27T07:42:17;18.10;99.90
12714;DHT22;6421;44.470;11.270;2022-09-27T07:44:42;18.10;99.90
12714;DHT22;6421;44.470;11.270;2022-09-27T07:47:08;18.30;99.90
12714;DHT22;6421;44.470;11.270;2022-09-27T07:52:01;18.50;99.90
12714;DHT22;6421;44.470;11.270;2022-09-27T07:54:27;18.60;99.90
12714;DHT22;6421;44.470;11.270;2022-09-27T07:56:53;18.70;99.90
12714;DHT22;6421;44.470;11.270;2022-09-27T07:59:19;18.60;99.90
12714;DHT22;6421;44.470;11.270;2022-09-27T08:01:45;18.70;99.90
12714;DHT22;6421;44.470;11.270;2022-09-27T08:04:11;18.80;99.90
12714;DHT22;6421;44.470;11.270;2022-09-27T08:06:36;18.90;99.90
12714;DHT22;6421;44.470;11.270;2022-09-27T08:09:05;19.00;99.90
12714;DHT22;6421;44.470;11.270;2022-09-27T08:11:31;19.00;99.90
12714;DHT22;6421;44.470;11.270;2022-09-27T08:16:22;19.10;99.90
12714;DHT22;6421;44.470;11.270;2022-09-27T08:18:48;19.10;99.90
12714;DHT22;6421;44.470;11.270;2022-09-27T08:21:13;19.10;99.90
12714;DHT22;6421;44.470;11.270;2022-09-27T08:23:39;19.00;99.90
12714;DHT22;6421;44.470;11.270;2022-09-27T08:28:33;19.20;99.90
12714;DHT22;6421;44.470;11.270;2022-09-27T08:30:58;19.10;99.90
12714;DHT22;6421;44.470;11.270;2022-09-27T08:33:24;19.20;99.90
12714;DHT22;6421;44.470;11.270;2022-09-27T08:38:17;19.30;99.90
12714;DHT22;6421;44.470;11.270;2022-09-27T08:40:45;19.30;99.90
12714;DHT22;6421;44.470;11.270;2022-09-27T08:43:16;19.30;99.90
12714;DHT22;6421;44.470;11.270;2022-09-27T08:48:30;19.50;99.90
12714;DHT22;6421;44.470;11.270;2022-09-27T08:50:57;19.50;99.90
12714;DHT22;6421;44.470;11.270;2022-09-27T08:53:34;19.60;99.90
12714;DHT22;6421;44.470;11.270;2022-09-27T08:58:31;19.80;99.90
12714;DHT22;6421;44.470;11.270;2022-09-27T09:01:03;19.90;99.90
12714;DHT22;6421;44.470;11.270;2022-09-27T09:03:32;19.70;99.90
12714;DHT22;6421;44.470;11.270;2022-09-27T09:06:16;19.90;99.90
12714;DHT22;6421;44.470;11.270;2022-09-27T09:08:58;19.90;99.90
12714;DHT22;6421;44.470;11.270;2022-09-27T09:11:40;19.90;99.90
12714;DHT22;6421;44.470;11.270;2022-09-27T09:17:32;20.00;99.90
12714;DHT22;6421;44.470;11.270;2022-09-27T09:25:51;20.00;99.90
12714;DHT22;6421;44.470;11.270;2022-09-27T09:28:43;20.10;99.90
12714;DHT22;6421;44.470;11.270;2022-09-27T09:34:08;20.00;99.90
12714;DHT22;6421;44.470;11.270;2022-09-27T09:37:03;20.10;99.90
12714;DHT22;6421;44.470;11.270;2022-09-27T09:39:35;20.10;99.90
12714;DHT22;6421;44.470;11.270;2022-09-27T09:42:09;20.10;99.90
12714;DHT22;6421;44.470;11.270;2022-09-27T09:44:57;20.00;99.90
12714;DHT22;6421;44.470;11.270;2022-09-27T09:50:04;20.00;99.90
12714;DHT22;6421;44.470;11.270;2022-09-27T09:52:40;20.10;99.90
12714;DHT22;6421;44.470;11.270;2022-09-27T09:55:16;20.00;99.90
12714;DHT22;6421;44.470;11.270;2022-09-27T10:00:28;20.20;99.90
12714;DHT22;6421;44.470;11.270;2022-09-27T10:02:57;20.30;99.90
12714;DHT22;6421;44.470;11.270;2022-09-27T10:05:25;20.50;99.90
12714;DHT22;6421;44.470;11.270;2022-09-27T10:07:54;20.50;99.90
12714;DHT22;6421;44.470;11.270;2022-09-27T10:10:22;20.60;99.90
12714;DHT22;6421;44.470;11.270;2022-09-27T10:12:48;20.40;99.90
12714;DHT22;6421;44.470;11.270;2022-09-27T10:15:27;20.70;99.90
12714;DHT22;6421;44.470;11.270;2022-09-27T10:17:56;20.80;99.90
12714;DHT22;6421;44.470;11.270;2022-09-27T10:20:53;20.80;99.90
12714;DHT22;6421;44.470;11.270;2022-09-27T10:23:21;20.80;99.90
12714;DHT22;6421;44.470;11.270;2022-09-27T10:25:55;20.80;99.90
12714;DHT22;6421;44.470;11.270;2022-09-27T10:31:05;20.70;99.90
12714;DHT22;6421;44.470;11.270;2022-09-27T10:33:31;20.50;99.90
12714;DHT22;6421;44.470;11.270;2022-09-27T10:35:59;20.60;99.90
12714;DHT22;6421;44.470;11.270;2022-09-27T10:38:33;20.50;99.90
12714;DHT22;6421;44.470;11.270;2022-09-27T10:43:41;20.90;99.90
12714;DHT22;6421;44.470;11.270;2022-09-27T10:46:12;20.90;99.90
12714;DHT22;6421;44.470;11.270;2022-09-27T10:48:40;20.90;99.90
12714;DHT22;6421;44.470;11.270;2022-09-27T10:51:25;21.00;99.90
12714;DHT22;6421;44.470;11.270;2022-09-27T10:56:27;20.90;99.90
12714;DHT22;6421;44.470;11.270;2022-09-27T10:58:54;20.80;99.90
12714;DHT22;6421;44.470;11.270;2022-09-27T11:01:21;19.90;99.90
12714;DHT22;6421;44.470;11.270;2022-09-27T11:03:56;21.30;99.90
12714;DHT22;6421;44.470;11.270;2022-09-27T11:08:49;20.60;99.90
12714;DHT22;6421;44.470;11.270;2022-09-27T11:11:24;20.80;99.90
12714;DHT22;6421;44.470;11.270;2022-09-27T11:13:58;20.90;99.90
12714;DHT22;6421;44.470;11.270;2022-09-27T11:16:31;21.00;99.90
12714;DHT22;6421;44.470;11.270;2022-09-27T11:24:26;21.10;99.90
12714;DHT22;6421;44.470;11.270;2022-09-27T11:27:10;21.10;99.90
12714;DHT22;6421;44.470;11.270;2022-09-27T11:29:44;21.10;99.90
12714;DHT22;6421;44.470;11.270;2022-09-27T11:32:36;21.10;99.90
12714;DHT22;6421;44.470;11.270;2022-09-27T11:35:07;21.10;99.90
12714;DHT22;6421;44.470;11.270;2022-09-27T11:40:52;20.90;99.90
12714;DHT22;6421;44.470;11.270;2022-09-27T11:45:54;20.70;99.90
12714;DHT22;6421;44.470;11.270;2022-09-27T11:53:58;20.70;99.90
12714;DHT22;6421;44.470;11.270;2022-09-27T11:56:36;20.60;99.90
12714;DHT22;6421;44.470;11.270;2022-09-27T12:10:15;20.80;99.90
12714;DHT22;6421;44.470;11.270;2022-09-27T12:12:45;20.90;99.90
12714;DHT22;6421;44.470;11.270;2022-09-27T12:15:40;20.90;99.90
12714;DHT22;6421;44.470;11.270;2022-09-27T12:20:43;20.90;99.90
12714;DHT22;6421;44.470;11.270;2022-09-27T12:23:21;20.90;99.90
12714;DHT22;6421;44.470;11.270;2022-09-27T12:25:52;21.00;99.90
12714;DHT22;6421;44.470;11.270;2022-09-27T12:31:11;21.00;99.90
12714;DHT22;6421;44.470;11.270;2022-09-27T12:34:43;21.00;99.90
12714;DHT22;6421;44.470;11.270;2022-09-27T12:39:48;21.20;99.90
12714;DHT22;6421;44.470;11.270;2022-09-27T12:42:20;21.10;99.90
12714;DHT22;6421;44.470;11.270;2022-09-27T12:44:47;21.10;99.90
12714;DHT22;6421;44.470;11.270;2022-09-27T12:50:02;21.10;99.90
12714;DHT22;6421;44.470;11.270;2022-09-27T12:52:34;21.10;99.90
12714;DHT22;6421;44.470;11.270;2022-09-27T12:55:46;21.10;99.90
12714;DHT22;6421;44.470;11.270;2022-09-27T12:58:28;20.80;99.90
12714;DHT22;6421;44.470;11.270;2022-09-27T13:03:52;20.80;99.90
12714;DHT22;6421;44.470;11.270;2022-09-27T13:14:33;21.00;99.90
12714;DHT22;6421;44.470;11.270;2022-09-27T13:16:59;21.10;99.90
12714;DHT22;6421;44.470;11.270;2022-09-27T13:22:01;21.40;99.90
12714;DHT22;6421;44.470;11.270;2022-09-27T13:24:48;21.60;99.90
12714;DHT22;6421;44.470;11.270;2022-09-27T13:35:35;21.80;99.90
12714;DHT22;6421;44.470;11.270;2022-09-27T13:38:01;21.80;99.90
12714;DHT22;6421;44.470;11.270;2022-09-27T13:40:31;21.80;99.90
12714;DHT22;6421;44.470;11.270;2022-09-27T13:45:53;21.70;99.90
12714;DHT22;6421;44.470;11.270;2022-09-27T13:48:51;21.90;99.90
12714;DHT22;6421;44.470;11.270;2022-09-27T13:54:03;21.90;99.90
12714;DHT22;6421;44.470;11.270;2022-09-27T13:59:23;21.80;99.90
12714;DHT22;6421;44.470;11.270;2022-09-27T14:02:12;21.70;99.90
12714;DHT22;6421;44.470;11.270;2022-09-27T14:04:45;21.60;99.90
12714;DHT22;6421;44.470;11.270;2022-09-27T14:07:20;21.70;99.90
12714;DHT22;6421;44.470;11.270;2022-09-27T14:09:50;21.50;99.90
12714;DHT22;6421;44.470;11.270;2022-09-27T14:12:21;21.60;99.90
12714;DHT22;6421;44.470;11.270;2022-09-27T14:14:49;21.70;99.90
12714;DHT22;6421;44.470;11.270;2022-09-27T14:19:43;21.60;99.90
12714;DHT22;6421;44.470;11.270;2022-09-27T14:22:14;21.60;99.90
12714;DHT22;6421;44.470;11.270;2022-09-27T14:27:26;21.50;99.90
12714;DHT22;6421;44.470;11.270;2022-09-27T14:29:59;21.50;99.90
12714;DHT22;6421;44.470;11.270;2022-09-27T14:32:31;21.40;99.90
12714;DHT22;6421;44.470;11.270;2022-09-27T14:35:18;21.40;99.90
12714;DHT22;6421;44.470;11.270;2022-09-27T14:38:05;21.40;99.90
12714;DHT22;6421;44.470;11.270;2022-09-27T14:40:39;21.40;99.90
12714;DHT22;6421;44.470;11.270;2022-09-27T14:43:14;21.30;99.90
12714;DHT22;6421;44.470;11.270;2022-09-27T14:45:40;21.30;99.90
12714;DHT22;6421;44.470;11.270;2022-09-27T14:48:32;21.20;99.90
12714;DHT22;6421;44.470;11.270;2022-09-27T14:53:49;21.20;99.90
12714;DHT22;6421;44.470;11.270;2022-09-27T14:56:24;21.20;99.90
12714;DHT22;6421;44.470;11.270;2022-09-27T14:58:59;21.20;99.90
12714;DHT22;6421;44.470;11.270;2022-09-27T15:01:27;21.40;99.90
12714;DHT22;6421;44.470;11.270;2022-09-27T15:03:55;21.10;99.90
12714;DHT22;6421;44.470;11.270;2022-09-27T15:06:22;21.10;99.90
12714;DHT22;6421;44.470;11.270;2022-09-27T15:08:49;19.30;99.90
12714;DHT22;6421;44.470;11.270;2022-09-27T15:11:18;21.00;99.90
12714;DHT22;6421;44.470;11.270;2022-09-27T15:13:45;21.00;99.90
12714;DHT22;6421;44.470;11.270;2022-09-27T15:16:20;20.90;99.90
12714;DHT22;6421;44.470;11.270;2022-09-27T15:19:02;20.80;99.90
12714;DHT22;6421;44.470;11.270;2022-09-27T15:21:33;21.10;99.90
12714;DHT22;6421;44.470;11.270;2022-09-27T15:23:59;20.90;99.90
12714;DHT22;6421;44.470;11.270;2022-09-27T15:26:44;20.90;99.90
12714;DHT22;6421;44.470;11.270;2022-09-27T15:29:18;20.70;99.90
12714;DHT22;6421;44.470;11.270;2022-09-27T15:31:44;20.80;99.90
12714;DHT22;6421;44.470;11.270;2022-09-27T15:34:16;20.80;99.90
12714;DHT22;6421;44.470;11.270;2022-09-27T15:36:52;20.50;99.90
12714;DHT22;6421;44.470;11.270;2022-09-27T15:39:27;20.60;99.90
12714;DHT22;6421;44.470;11.270;2022-09-27T15:42:11;20.70;99.90
12714;DHT22;6421;44.470;11.270;2022-09-27T15:44:50;20.50;99.90
12714;DHT22;6421;44.470;11.270;2022-09-27T15:52:41;20.20;99.90
12714;DHT22;6421;44.470;11.270;2022-09-27T15:55:11;20.00;99.90
12714;DHT22;6421;44.470;11.270;2022-09-27T15:57:38;20.00;99.90
12714;DHT22;6421;44.470;11.270;2022-09-27T16:00:05;20.00;99.90
12714;DHT22;6421;44.470;11.270;2022-09-27T16:02:31;19.90;99.90
12714;DHT22;6421;44.470;11.270;2022-09-27T16:04:57;19.90;99.90
12714;DHT22;6421;44.470;11.270;2022-09-27T16:07:23;19.80;99.90
12714;DHT22;6421;44.470;11.270;2022-09-27T16:12:16;19.80;99.90
12714;DHT22;6421;44.470;11.270;2022-09-27T16:14:42;19.60;99.90
12714;DHT22;6421;44.470;11.270;2022-09-27T16:17:08;19.60;99.90
12714;DHT22;6421;44.470;11.270;2022-09-27T16:22:02;19.50;99.90
12714;DHT22;6421;44.470;11.270;2022-09-27T16:26:54;19.40;99.90
12714;DHT22;6421;44.470;11.270;2022-09-27T16:29:20;19.20;99.90
12714;DHT22;6421;44.470;11.270;2022-09-27T16:31:45;19.30;99.90
12714;DHT22;6421;44.470;11.270;2022-09-27T16:34:11;19.30;99.90
12714;DHT22;6421;44.470;11.270;2022-09-27T16:36:38;19.00;99.90
12714;DHT22;6421;44.470;11.270;2022-09-27T16:39:06;18.90;99.90
12714;DHT22;6421;44.470;11.270;2022-09-27T16:41:34;18.80;99.90
12714;DHT22;6421;44.470;11.270;2022-09-27T16:44:05;18.70;99.90
12714;DHT22;6421;44.470;11.270;2022-09-27T16:46:31;18.70;99.90
12714;DHT22;6421;44.470;11.270;2022-09-27T16:48:58;18.70;99.90
12714;DHT22;6421;44.470;11.270;2022-09-27T16:54:09;18.50;99.90
12714;DHT22;6421;44.470;11.270;2022-09-27T16:56:35;18.40;99.90
12714;DHT22;6421;44.470;11.270;2022-09-27T16:59:02;17.40;99.90
12714;DHT22;6421;44.470;11.270;2022-09-27T17:01:32;18.30;99.90
12714;DHT22;6421;44.470;11.270;2022-09-27T17:06:25;18.10;99.90
12714;DHT22;6421;44.470;11.270;2022-09-27T17:08:53;18.10;99.90
12714;DHT22;6421;44.470;11.270;2022-09-27T17:11:19;18.10;99.90
12714;DHT22;6421;44.470;11.270;2022-09-27T17:16:14;17.90;99.90
12714;DHT22;6421;44.470;11.270;2022-09-27T17:18:40;17.80;99.90
12714;DHT22;6421;44.470;11.270;2022-09-27T17:21:07;17.80;99.90
12714;DHT22;6421;44.470;11.270;2022-09-27T17:23:34;17.80;99.90
12714;DHT22;6421;44.470;11.270;2022-09-27T17:26:20;17.60;99.90
12714;DHT22;6421;44.470;11.270;2022-09-27T17:28:46;17.80;99.90
12714;DHT22;6421;44.470;11.270;2022-09-27T17:31:14;17.50;99.90
12714;DHT22;6421;44.470;11.270;2022-09-27T17:33:47;17.50;99.90
12714;DHT22;6421;44.470;11.270;2022-09-27T17:36:15;17.40;99.90
12714;DHT22;6421;44.470;11.270;2022-09-27T17:38:42;17.30;99.90
12714;DHT22;6421;44.470;11.270;2022-09-27T17:41:10;17.20;99.90
12714;DHT22;6421;44.470;11.270;2022-09-27T17:43:37;17.20;99.90
12714;DHT22;6421;44.470;11.270;2022-09-27T17:46:09;17.20;99.90
12714;DHT22;6421;44.470;11.270;2022-09-27T17:48:35;17.10;99.90
12714;DHT22;6421;44.470;11.270;2022-09-27T17:51:21;17.10;99.90
12714;DHT22;6421;44.470;11.270;2022-09-27T17:53:47;17.00;99.90
12714;DHT22;6421;44.470;11.270;2022-09-27T17:56:13;17.10;99.90
12714;DHT22;6421;44.470;11.270;2022-09-27T17:58:47;17.10;99.90
12714;DHT22;6421;44.470;11.270;2022-09-27T18:06:06;17.00;99.90
12714;DHT22;6421;44.470;11.270;2022-09-27T18:08:32;17.10;99.90
12714;DHT22;6421;44.470;11.270;2022-09-27T18:11:05;17.00;99.90
12714;DHT22;6421;44.470;11.270;2022-09-27T18:13:32;17.20;99.90
12714;DHT22;6421;44.470;11.270;2022-09-27T18:16:07;17.00;99.90
12714;DHT22;6421;44.470;11.270;2022-09-27T18:18:34;17.00;99.90
12714;DHT22;6421;44.470;11.270;2022-09-27T18:21:04;16.90;99.90
12714;DHT22;6421;44.470;11.270;2022-09-27T18:25:57;17.10;99.90
12714;DHT22;6421;44.470;11.270;2022-09-27T18:28:27;17.10;99.90
12714;DHT22;6421;44.470;11.270;2022-09-27T18:30:53;17.10;99.90
12714;DHT22;6421;44.470;11.270;2022-09-27T18:33:19;17.10;99.90
12714;DHT22;6421;44.470;11.270;2022-09-27T18:38:12;17.30;99.90
12714;DHT22;6421;44.470;11.270;2022-09-27T18:40:38;17.00;99.90
12714;DHT22;6421;44.470;11.270;2022-09-27T18:45:29;17.10;99.90
12714;DHT22;6421;44.470;11.270;2022-09-27T18:47:55;17.10;99.90
12714;DHT22;6421;44.470;11.270;2022-09-27T18:50:21;17.10;99.90
12714;DHT22;6421;44.470;11.270;2022-09-27T18:52:47;17.10;99.90
12714;DHT22;6421;44.470;11.270;2022-09-27T19:00:06;17.00;99.90
12714;DHT22;6421;44.470;11.270;2022-09-27T19:12:17;17.00;99.90
12714;DHT22;6421;44.470;11.270;2022-09-27T19:14:42;16.90;99.90
12714;DHT22;6421;44.470;11.270;2022-09-27T19:19:34;17.00;99.90
12714;DHT22;6421;44.470;11.270;2022-09-27T19:21:59;16.90;99.90
12714;DHT22;6421;44.470;11.270;2022-09-27T19:24:25;17.10;99.90
12714;DHT22;6421;44.470;11.270;2022-09-27T19:29:18;16.80;99.90
12714;DHT22;6421;44.470;11.270;2022-09-27T19:39:02;16.70;99.90
12714;DHT22;6421;44.470;11.270;2022-09-27T19:41:28;16.50;99.90
12714;DHT22;6421;44.470;11.270;2022-09-27T19:43:54;16.60;99.90
12714;DHT22;6421;44.470;11.270;2022-09-27T19:46:21;16.70;99.90
12714;DHT22;6421;44.470;11.270;2022-09-27T19:48:48;16.50;99.90
12714;DHT22;6421;44.470;11.270;2022-09-27T19:51:19;16.60;99.90
12714;DHT22;6421;44.470;11.270;2022-09-27T19:53:46;16.50;99.90
12714;DHT22;6421;44.470;11.270;2022-09-27T19:56:12;16.50;99.90
12714;DHT22;6421;44.470;11.270;2022-09-27T19:58:39;16.80;99.90
12714;DHT22;6421;44.470;11.270;2022-09-27T20:01:13;16.40;99.90
12714;DHT22;6421;44.470;11.270;2022-09-27T20:03:41;16.40;99.90